Tiempo atmosférico en la estación meteorológica de Arevalo, Ávila (820 m.)

Fecha
DESCASC
Temp. máxima en grados centígrados (hora)
DESCASC
Temp. mínima en grados centígrados (hora)
DESCASC
Temp. media en grados centígrados
DESCASC
Racha de viento máxima en m/sg (hora)
DESCASC
Velocidad máxima media en intervalos de 10 minutos(hora)
DESCASC
Precipitaciones diarias en mm
DESCASC
Precipitaciones de 00:00 a 06:00 en mm
DESCASC
Precipitaciones de 06:00 a 12:00 en mm
DESCASC
Precipitaciones de 12:00 a 18:00 en mm
DESCASC
Precipitaciones de 18:00 a 24:00 en mm
DESCASC
17-09-2017 21.5 (18:00) 3.2 (08:30) 12.4 9.44 (18:20) 5.28 (18:20) 0 0 0 0 0
16-09-2017 17.9 (17:00) 3.3 (08:00) 10.6 9.17 (15:30) 4.17 (15:40) 0 0 0 0 0
15-09-2017 18.7 (15:30) 7.9 (08:40) 13.3 9.17 (14:00) 5 (11:40) 0 0 0 0 0
14-09-2017 25.7 (18:10) 11.9 (00:00) 18.8 8.61 (20:50) 5 (20:50) 0 0 0 0 0
13-09-2017 29.8 (18:10) 9.6 (00:00) 19.7 9.17 (18:50) 5 (18:50) 0 0 0 0 0
12-09-2017 24.6 (19:40) 12.6 (00:00) 18.6 7.22 (15:00) 3.33 (00:50) 0 0 0 0 0
11-09-2017 27.2 (16:50) 13.2 (00:00) 20.2 12.78 (15:00) 6.39 (15:40) 0 0 0 0 0
10-09-2017 22.3 (18:30) 6.5 (00:00) 14.4 8.61 (17:00) 4.17 (18:40) 0 0 0 0 0
09-09-2017 21 (16:10) 13.6 (00:00) 17.3 13.89 (18:50) 8.61 (18:10) 0 0 0 0 0
08-09-2017 29.4 (17:50) 8.2 (00:00) 18.8 11.39 (18:50) 5.28 (19:00) 0 0 0 0 0
07-09-2017 27.3 (18:10) 5.7 (00:00) 16.5 5.83 (15:20) 2.78 (15:10) 0 0 0 0 0
06-09-2017 29.8 (17:10) 12.7 (00:00) 21.2 9.72 (18:50) 5.28 (19:50) 0 0 0 0 0
05-09-2017 32 (17:50) 12.8 (00:00) 22.4 6.94 (18:20) 3.89 (16:00) 0 0 0 0 0
04-09-2017 27.2 (18:10) 14.3 (00:00) 20.8 8.61 (03:10) 5.83 (01:50) 0 0 0 0 0
03-09-2017 30.3 (17:50) 11.7 (00:00) 21 9.72 (17:20) 5.56 (18:50) 0 0 0 0 0
02-09-2017 26.3 (18:10) 8.9 (00:00) 17.6 6.39 (00:10) 3.06 (00:10) 0 0 0 0 0
01-09-2017 24.7 (17:20) 10.2 (00:00) 17.5 8.06 (17:10) 3.89 (22:50) 0 0 0 0 0
31-08-2017 24.6 (17:30) 13.4 (00:00) 19 7.78 (17:30) 3.89 (17:00) 0.6 0.4 0.2 0 0
30-08-2017 26.4 (18:10) 11.5 (00:00) 18.9 13.33 (21:20) 7.78 (21:40) 3.4 0 0 0 3.4
29-08-2017 26 (16:30) 11.3 (00:00) 18.7 8.61 (20:10) 5.28 (20:10) 0 0 0 0 0
28-08-2017 23.1 (13:30) 15.4 (00:00) 19.3 11.39 (16:10) 6.67 (16:10) 0.4 0.4 0 0 0
27-08-2017 25.5 (16:10) 15.6 (00:00) 20.6 17.78 (03:50) 10.56 (03:50) 3 0 1 0.4 1.6
26-08-2017 29.2 (16:30) 13.5 (00:00) 21.4 10.83 (17:30) 6.11 (17:20) 0 0 0 0 0
25-08-2017 32.1 (18:30) 11.3 (00:00) 21.7 10.83 (16:50) 6.94 (16:50) 0 0 0 0 0
24-08-2017 32.4 (16:10) 14.4 (00:00) 23.4 12.78 (18:20) 8.06 (18:10) 0 0 0 0 0
23-08-2017 35.6 (17:20) 15.6 (00:00) 25.6 9.72 (18:50) 5.56 (18:40) 0 0 0 0 0
22-08-2017 35.1 (16:50) 18.5 (00:00) 26.8 10.83 (15:30) 5.28 (14:30) 0 0 0 0 0

Gráficas

Temp. máximas Temp. mínimas Temp. medias Precipitaciones Rachas de viento máximas Velocidades máximas media en intervalos de 10 minutos

Datos horarios

Fecha y hora oficial Temperatura (ºC) Velocidad del viento (km/h) Dirección del viento Racha (km/h) Dirección de racha Precipitación (mm) Presión (hPa) Tendencia (hPa) Humedad (%)
2017-09-20 23:00:00 14.7 5 Sudoeste 9 Sur 0 -- -- 40
2017-09-20 22:00:00 17.7 2 Sur 5 Norte 0 -- -- 30
2017-09-20 21:00:00 21 0 Calma 8 Norte 0 -- -- 24
2017-09-20 20:00:00 25.1 4 Noroeste 10 Norte 0 -- -- 19
2017-09-20 19:00:00 26.4 6 Noroeste 21 Noroeste 0 -- -- 18
2017-09-20 18:00:00 27.1 9 Noroeste 19 Oeste 0 -- -- 18
2017-09-20 17:00:00 27 8 Noroeste 21 Noroeste 0 -- -- 19
2017-09-20 16:00:00 26.8 7 Noroeste 17 Noroeste 0 -- -- 19
2017-09-20 15:00:00 26.4 8 Sur 12 Sur 0 -- -- 19
2017-09-20 14:00:00 24.7 6 Noroeste 12 Noroeste 0 -- -- 24
2017-09-20 13:00:00 23.3 4 Este 12 Sudeste 0 -- -- 26
2017-09-20 12:00:00 21 4 Este 9 Este 0 -- -- 34
2017-09-20 11:00:00 17.1 2 Sudeste 8 Sudeste 0 -- -- 44
2017-09-20 10:00:00 11.3 4 Sur 9 Sur 0 -- -- 57
2017-09-20 09:00:00 6.6 5 Sur 9 Sur 0 -- -- 72
2017-09-20 08:00:00 5.3 6 Sur 10 Sur 0 -- -- 76
2017-09-20 07:00:00 5.9 5 Sur 9 Sudoeste 0 -- -- 74
2017-09-20 06:00:00 6.1 7 Sudoeste 10 Sudoeste 0 -- -- 73
2017-09-20 05:00:00 6.6 6 Sudoeste 9 Sudoeste 0 -- -- 71
2017-09-20 04:00:00 6.6 6 Sur 9 Sur 0 -- -- 71
2017-09-20 03:00:00 8 5 Sudoeste 10 Sur 0 -- -- 64
2017-09-20 02:00:00 8.8 8 Sur 12 Sur 0 -- -- 61
2017-09-20 01:00:00 9.8 5 Sur 8 Sur 0 -- -- 61
2017-09-20 00:00:00 12.5 0 Calma 3 Sur 0 -- -- 52
2017-09-19 23:00:00 13.9 0 Calma 2 Sudeste 0 -- -- 43
2017-09-19 22:00:00 16.1 0 Calma 9 Norte 0 -- -- 38
2017-09-19 21:00:00 19.3 5 Norte 10 Norte 0 -- -- 33
2017-09-19 20:00:00 21.6 5 Nordeste 18 Noroeste 0 -- -- 34
2017-09-19 19:00:00 22.7 9 Norte 18 Norte 0 -- -- 31
2017-09-19 18:00:00 22.8 9 Norte 26 Norte 0 -- -- 31
2017-09-19 17:00:00 23.1 7 Noroeste 21 Noroeste 0 -- -- 31
2017-09-19 16:00:00 22.2 13 Norte 23 Noroeste 0 -- -- 35
2017-09-19 15:00:00 21.6 9 Este 15 Este 0 -- -- 40
2017-09-19 14:00:00 20.6 6 Norte 18 Sudeste 0 -- -- 42
2017-09-19 13:00:00 19.3 4 Sudeste 11 Este 0 -- -- 46
2017-09-19 12:00:00 17.4 2 Sudoeste 9 Sudeste 0 -- -- 53
2017-09-19 11:00:00 13.8 4 Este 9 Sudeste 0 -- -- 66
2017-09-19 10:00:00 10.3 2 Sudoeste 4 Sur 0 -- -- 74
2017-09-19 09:00:00 6 4 Sur 8 Sur 0 -- -- 84
2017-09-19 08:00:00 4.6 4 Sur 9 Sur 0 -- -- 87
2017-09-19 07:00:00 5.7 0 Calma 4 Sudeste 0 -- -- 80
2017-09-19 06:00:00 6.1 2 Sudeste 7 Sur 0 -- -- 82
2017-09-19 05:00:00 7.3 2 Sudoeste 6 Sur 0 -- -- 78
2017-09-19 04:00:00 8.1 3 Sur 4 Sur 0 -- -- 74
2017-09-19 03:00:00 9.6 2 Sudeste 5 Sur 0 -- -- 70
2017-09-19 02:00:00 11.8 0 Calma 6 Noroeste 0 -- -- 63
2017-09-19 01:00:00 13 3 Oeste 10 Noroeste 0 -- -- 58
2017-09-19 00:00:00 14.3 4 Noroeste 7 Noroeste 0 -- -- 55
2017-09-18 23:00:00 16 4 Noroeste 6 Noroeste 0 -- -- 51
2017-09-18 22:00:00 17.3 4 Noroeste 13 Noroeste 0 -- -- 46
2017-09-18 21:00:00 18.1 8 Noroeste 17 Noroeste 0 -- -- 43
2017-09-18 20:00:00 20.2 9 Noroeste 26 Oeste 0 -- -- 38
2017-09-18 19:00:00 21.2 12 Noroeste 28 Norte 0 -- -- 36
2017-09-18 18:00:00 21.5 19 Norte 31 Norte 0 -- -- 36
2017-09-18 17:00:00 20.9 12 Norte 30 Noroeste 0 -- -- 39
2017-09-18 16:00:00 19.6 15 Noroeste 32 Norte 0 -- -- 41
2017-09-18 15:00:00 20 10 Norte 28 Norte 0 -- -- 41
2017-09-18 14:00:00 17.5 13 Noroeste 29 Norte 0 -- -- 49
2017-09-18 13:00:00 16.9 15 Noroeste 32 Norte 0 -- -- 53
2017-09-18 12:00:00 15.3 15 Noroeste 29 Noroeste 0 -- -- 63
2017-09-18 11:00:00 14.4 14 Noroeste 26 Oeste 0 -- -- 64
2017-09-18 10:00:00 12.5 12 Oeste 26 Oeste 0 -- -- 67
2017-09-18 09:00:00 12 13 Oeste 23 Oeste 0 -- -- 70
2017-09-18 08:00:00 11 13 Oeste 22 Oeste 0 -- -- 73
2017-09-18 07:00:00 10.4 6 Oeste 19 Oeste 0 -- -- 78
2017-09-18 06:00:00 10.3 10 Sudoeste 19 Oeste 0 -- -- 68
2017-09-18 05:00:00 10.7 12 Oeste 19 Oeste 0 -- -- 62
2017-09-18 04:00:00 11 11 Oeste 18 Oeste 0 -- -- 56
2017-09-18 03:00:00 8.6 5 Sudoeste 11 Sur 0 -- -- 58
2017-09-18 02:00:00 8.6 5 Sudoeste 9 Sur 0 -- -- 56
2017-09-18 01:00:00 9.4 5 Sur 9 Sur 0 -- -- 54
2017-09-18 00:00:00 10.2 4 Sudoeste 15 Sur 0 -- -- 53
2017-09-17 23:00:00 12.5 8 Sur 10 Sur 0 -- -- 43
2017-09-17 22:00:00 15.3 6 Noroeste 13 Oeste 0 -- -- 35
2017-09-17 21:00:00 17.3 6 Oeste 20 Oeste 0 -- -- 30
2017-09-17 20:00:00 19.8 12 Noroeste 26 Oeste 0 -- -- 25
2017-09-17 19:00:00 20.9 14 Oeste 34 Oeste 0 -- -- 24
2017-09-17 18:00:00 21.5 13 Noroeste 28 Oeste 0 -- -- 23
2017-09-17 17:00:00 20.1 18 Oeste 32 Oeste 0 -- -- 26
2017-09-17 16:00:00 19.5 12 Oeste 30 Oeste 0 -- -- 29
2017-09-17 15:00:00 18.6 14 Noroeste 30 Oeste 0 -- -- 30
2017-09-17 14:00:00 18.8 12 Oeste 26 Oeste 0 -- -- 31
2017-09-17 13:00:00 16 13 Oeste 24 Oeste 0 -- -- 41
2017-09-17 12:00:00 15.2 8 Oeste 16 Oeste 0 -- -- 45
2017-09-17 11:00:00 12.9 5 Oeste 12 Sudoeste 0 -- -- 53
2017-09-17 10:00:00 10 4 Sur 8 Sur 0 -- -- 58
2017-09-17 09:00:00 5 4 Sudoeste 9 Sur 0 -- -- 69
2017-09-17 08:00:00 3.7 5 Sur 8 Sur 0 -- -- 72
2017-09-17 07:00:00 4.5 6 Sur 12 Sur 0 -- -- 71
2017-09-17 06:00:00 4.6 7 Sur 14 Sur 0 -- -- 73
2017-09-17 05:00:00 4.7 9 Sur 13 Sur 0 -- -- 67
2017-09-17 04:00:00 6.8 5 Sur 8 Sur 0 -- -- 61
2017-09-17 03:00:00 7.8 4 Sudoeste 9 Oeste 0 -- -- 54
2017-09-17 02:00:00 8 5 Sudoeste 13 Noroeste 0 -- -- 54
2017-09-17 01:00:00 7.3 8 Sur 15 Sur 0 -- -- 60
2017-09-17 00:00:00 8.1 9 Sur 13 Sudoeste 0 -- -- 58
2017-09-16 23:00:00 10.4 5 Sur 8 Sur 0 -- -- 48
2017-09-16 22:00:00 12.7 0 Calma 8 Norte 0 -- -- 40
2017-09-16 21:00:00 14.6 6 Noroeste 13 Noroeste 0 -- -- 36
2017-09-16 20:00:00 16.5 8 Noroeste 19 Norte 0 -- -- 33
2017-09-16 19:00:00 17.6 10 Noroeste 27 Norte 0 -- -- 31
2017-09-16 18:00:00 17.9 9 Noroeste 23 Norte 0 -- -- 28
2017-09-16 17:00:00 17.9 11 Noroeste 26 Noroeste 0 -- -- 29
2017-09-16 16:00:00 17.3 10 Oeste 33 Noroeste 0 -- -- 33
2017-09-16 15:00:00 16.8 12 Norte 23 Noroeste 0 -- -- 37
2017-09-16 14:00:00 15.7 9 Norte 32 Noroeste 0 -- -- 39
2017-09-16 13:00:00 14.3 6 Este 14 Nordeste 0 -- -- 45
2017-09-16 12:00:00 12.6 6 Nordeste 14 Nordeste 0 -- -- 52
2017-09-16 11:00:00 10.6 7 Nordeste 14 Este 0 -- -- 60
2017-09-16 10:00:00 8.1 3 Oeste 8 Sur 0 -- -- 71
2017-09-16 09:00:00 4.7 0 Calma 4 Sur 0 -- -- 81
2017-09-16 08:00:00 3.3 3 Sur 6 Norte 0 -- -- 82
2017-09-16 07:00:00 4.1 5 Norte 8 Noroeste 0 -- -- 81
2017-09-16 06:00:00 4.4 3 Oeste 6 Sudoeste 0 -- -- 77
2017-09-16 05:00:00 5.3 3 Noroeste 5 Sudeste 0 -- -- 75
2017-09-16 04:00:00 7 2 Este 11 Nordeste 0 -- -- 71
2017-09-16 03:00:00 8 6 Nordeste 19 Nordeste 0 -- -- 67
2017-09-16 02:00:00 8.8 10 Nordeste 17 Nordeste 0 -- -- 65
2017-09-16 01:00:00 9.8 9 Nordeste 15 Nordeste 0 -- -- 62
2017-09-16 00:00:00 10.6 7 Nordeste 23 Nordeste 0 -- -- 60
2017-09-15 23:00:00 12.2 10 Nordeste 20 Nordeste 0 -- -- 51
2017-09-15 22:00:00 14 11 Este 18 Este 0 -- -- 43
2017-09-15 21:00:00 15.7 6 Nordeste 18 Nordeste 0 -- -- 37
2017-09-15 20:00:00 17.4 11 Nordeste 23 Norte 0 -- -- 32
2017-09-15 19:00:00 18.6 12 Norte 25 Nordeste 0 -- -- 29
2017-09-15 18:00:00 18.6 12 Norte 29 Norte 0 -- -- 31
2017-09-15 17:00:00 18.4 12 Nordeste 28 Este 0 -- -- 31
2017-09-15 16:00:00 17.7 15 Norte 24 Norte 0 -- -- 33
2017-09-15 15:00:00 18 11 Nordeste 27 Norte 0 -- -- 33
2017-09-15 14:00:00 16.8 13 Nordeste 33 Este 0 -- -- 37
2017-09-15 13:00:00 15.9 14 Nordeste 28 Nordeste 0 -- -- 43
2017-09-15 12:00:00 14.3 14 Nordeste 31 Nordeste 0 -- -- 48
2017-09-15 11:00:00 12.7 13 Nordeste 28 Nordeste 0 -- -- 54
2017-09-15 10:00:00 10.9 8 Nordeste 18 Norte 0 -- -- 61
2017-09-15 09:00:00 8.6 5 Norte 10 Norte 0 -- -- 68
2017-09-15 08:00:00 8 6 Norte 14 Norte 0 -- -- 70
2017-09-15 07:00:00 9.2 8 Norte 14 Nordeste 0 -- -- 66
2017-09-15 06:00:00 9.3 6 Norte 13 Nordeste 0 -- -- 69
2017-09-15 05:00:00 9.6 8 Norte 16 Nordeste 0 -- -- 72
2017-09-15 04:00:00 11 8 Norte 19 Nordeste 0 -- -- 67
2017-09-15 03:00:00 12 9 Norte 17 Nordeste 0 -- -- 65
2017-09-15 02:00:00 13.1 9 Norte 15 Nordeste 0 -- -- 61
2017-09-15 01:00:00 13.8 6 Norte 20 Nordeste 0 -- -- 57
2017-09-15 00:00:00 14.6 10 Nordeste 22 Nordeste 0 -- -- 56
2017-09-14 23:00:00 15.4 13 Nordeste 25 Nordeste 0 -- -- 56
2017-09-14 22:00:00 17.2 10 Nordeste 25 Nordeste 0 -- -- 53
2017-09-14 21:00:00 18.8 15 Nordeste 31 Este 0 -- -- 51
2017-09-14 20:00:00 21.8 14 Nordeste 30 Nordeste 0 -- -- 45
2017-09-14 19:00:00 24.1 14 Norte 24 Norte 0 -- -- 41
2017-09-14 18:00:00 25.3 9 Norte 26 Norte 0 -- -- 38
2017-09-14 17:00:00 24.6 9 Norte 23 Norte 0 -- -- 40
2017-09-14 16:00:00 25.1 8 Noroeste 21 Norte 0 -- -- 41
2017-09-14 15:00:00 24.1 12 Norte 21 Nordeste 0 -- -- 44
2017-09-14 14:00:00 22.9 8 Noroeste 21 Noroeste 0 -- -- 49
2017-09-14 13:00:00 21.3 9 Norte 21 Noroeste 0 -- -- 53
2017-09-14 12:00:00 20.4 6 Noroeste 14 Oeste 0 -- -- 58
2017-09-14 11:00:00 18.1 8 Noroeste 18 Noroeste 0 -- -- 65
2017-09-14 10:00:00 16.2 9 Noroeste 19 Oeste 0 -- -- 68
2017-09-14 09:00:00 14.3 5 Oeste 10 Oeste 0 -- -- 74
2017-09-14 08:00:00 13.1 5 Oeste 11 Oeste 0 -- -- 73
2017-09-14 07:00:00 12.4 4 Sur 10 Sur 0 -- -- 69
2017-09-14 06:00:00 13.3 4 Sudoeste 10 Sudoeste 0 -- -- 68
2017-09-14 05:00:00 14.5 4 Sudoeste 13 Oeste 0 -- -- 63
2017-09-14 04:00:00 16 8 Oeste 15 Sudoeste 0 -- -- 57
2017-09-14 03:00:00 16.5 6 Sudoeste 11 Oeste 0 -- -- 53
2017-09-14 02:00:00 16.6 3 Noroeste 8 Noroeste 0 -- -- 48
2017-09-14 01:00:00 15.6 5 Sur 10 Sur 0 -- -- 53
2017-09-14 00:00:00 17.6 8 Sur 11 Sur 0 -- -- 47
2017-09-13 23:00:00 20.1 3 Sudoeste 9 Oeste 0 -- -- 40
2017-09-13 22:00:00 23.3 4 Noroeste 10 Noroeste 0 -- -- 31
2017-09-13 21:00:00 25.2 4 Noroeste 21 Oeste 0 -- -- 30
2017-09-13 20:00:00 28.3 10 Noroeste 27 Oeste 0 -- -- 27
2017-09-13 19:00:00 29.4 12 Noroeste 33 Oeste 0 -- -- 28
2017-09-13 18:00:00 29.5 11 Oeste 25 Noroeste 0 -- -- 29
2017-09-13 17:00:00 28.9 10 Oeste 25 Oeste 0 -- -- 29
2017-09-13 16:00:00 28.8 11 Noroeste 28 Oeste 0 -- -- 28
2017-09-13 15:00:00 28.2 9 Oeste 26 Oeste 0 -- -- 31
2017-09-13 14:00:00 27.4 11 Oeste 27 Sudoeste 0 -- -- 34
2017-09-13 13:00:00 26.1 10 Sudoeste 17 Sudoeste 0 -- -- 36
2017-09-13 12:00:00 23.5 5 Sudeste 12 Sudeste 0 -- -- 42
2017-09-13 11:00:00 20.7 2 Sudoeste 6 Noroeste 0 -- -- 52
2017-09-13 10:00:00 15.5 2 Oeste 8 Sur 0 -- -- 67
2017-09-13 09:00:00 11.6 5 Sur 12 Sur 0 -- -- 79
2017-09-13 08:00:00 9.9 6 Sur 13 Sur 0 -- -- 83
2017-09-13 07:00:00 10.8 4 Sur 9 Sur 0 -- -- 81
2017-09-13 06:00:00 11.2 3 Sur 7 Sur 0 -- -- 81
2017-09-13 05:00:00 11.3 3 Sudoeste 13 Sur 0 -- -- 81
2017-09-13 04:00:00 11.9 4 Sur 14 Sur 0 -- -- 77
2017-09-13 03:00:00 14.4 0 Calma 5 Norte 0 -- -- 65
2017-09-13 02:00:00 15.4 4 Nordeste 14 Norte 0 -- -- 58
2017-09-13 01:00:00 16.2 4 Noroeste 13 Oeste 0 -- -- 57
2017-09-13 00:00:00 15.5 8 Sur 13 Sur 0 -- -- 58
2017-09-12 23:00:00 17.7 6 Sur 9 Sur 0 -- -- 52
2017-09-12 22:00:00 19 4 Norte 10 Noroeste 0 -- -- 46
2017-09-12 21:00:00 22.1 3 Sudeste 9 Norte 0 -- -- 40
2017-09-12 20:00:00 24 5 Noroeste 17 Oeste 0 -- -- 36
2017-09-12 19:00:00 24.2 10 Norte 20 Norte 0 -- -- 35
2017-09-12 18:00:00 24.3 11 Norte 21 Norte 0 -- -- 36
2017-09-12 17:00:00 23.5 8 Noroeste 21 Noroeste 0 -- -- 39
2017-09-12 16:00:00 23.2 9 Norte 19 Noroeste 0 -- -- 40
2017-09-12 15:00:00 22.8 10 Noroeste 26 Noroeste 0 -- -- 40
2017-09-12 14:00:00 20.8 10 Nordeste 21 Noroeste 0 -- -- 44
2017-09-12 13:00:00 19.9 8 Noroeste 19 Noroeste 0 -- -- 46
2017-09-12 12:00:00 18.5 9 Noroeste 14 Norte 0 -- -- 49
2017-09-12 11:00:00 16.8 5 Norte 13 Norte 0 -- -- 57
2017-09-12 10:00:00 15.4 8 Noroeste 16 Noroeste 0 -- -- 64
2017-09-12 09:00:00 13.2 8 Noroeste 13 Noroeste 0 -- -- 74
2017-09-12 08:00:00 12.7 7 Oeste 14 Oeste 0 -- -- 76
2017-09-12 07:00:00 13.1 6 Noroeste 14 Noroeste 0 -- -- 73
2017-09-12 06:00:00 13.1 5 Noroeste 15 Noroeste 0 -- -- 72
2017-09-12 05:00:00 13.7 5 Noroeste 12 Oeste 0 -- -- 69
2017-09-12 04:00:00 14.5 9 Noroeste 17 Noroeste 0 -- -- 66
2017-09-12 03:00:00 14.9 9 Oeste 15 Oeste 0 -- -- 60
2017-09-12 02:00:00 16.7 9 Oeste 21 Oeste 0 -- -- 55
2017-09-12 01:00:00 17.9 11 Noroeste 20 Noroeste 0 -- -- 52
2017-09-12 00:00:00 18.5 7 Noroeste 21 Oeste 0 -- -- 48
2017-09-11 23:00:00 19.7 7 Oeste 22 Sudoeste 0 -- -- 43
2017-09-11 22:00:00 20.7 9 Noroeste 29 Noroeste 0 -- -- 39
2017-09-11 21:00:00 22.8 15 Noroeste 30 Noroeste 0 -- -- 36
2017-09-11 20:00:00 24.8 14 Noroeste 33 Noroeste 0 -- -- 33
2017-09-11 19:00:00 26 17 Noroeste 39 Noroeste 0 -- -- 32
2017-09-11 18:00:00 26.9 18 Noroeste 37 Noroeste 0 -- -- 30
2017-09-11 17:00:00 26.6 23 Noroeste 40 Noroeste 0 -- -- 35
2017-09-11 16:00:00 26.4 19 Noroeste 42 Oeste 0 -- -- 36
2017-09-11 15:00:00 25 22 Noroeste 46 Oeste 0 -- -- 41
2017-09-11 14:00:00 24.2 20 Oeste 36 Oeste 0 -- -- 43
2017-09-11 13:00:00 22.2 19 Noroeste 34 Oeste 0 -- -- 54
2017-09-11 12:00:00 20.4 14 Noroeste 32 Noroeste 0 -- -- 61
2017-09-11 11:00:00 18 16 Oeste 29 Oeste 0 -- -- 70
2017-09-11 10:00:00 16.4 16 Oeste 30 Oeste 0 -- -- 76
2017-09-11 09:00:00 14.7 19 Oeste 29 Oeste 0 -- -- 82
2017-09-11 08:00:00 13.2 10 Sudoeste 15 Oeste 0 -- -- 84
2017-09-11 07:00:00 13.9 11 Sudoeste 25 Oeste 0 -- -- 80
2017-09-11 06:00:00 14.6 11 Oeste 29 Oeste 0 -- -- 75
2017-09-11 05:00:00 15.3 13 Oeste 30 Oeste 0 -- -- 72
2017-09-11 04:00:00 15.6 14 Oeste 27 Oeste 0 -- -- 65
2017-09-11 03:00:00 15.9 18 Oeste 28 Oeste 0 -- -- 59
2017-09-11 02:00:00 16.7 10 Oeste 24 Oeste 0 -- -- 53
2017-09-11 01:00:00 16.8 8 Oeste 19 Oeste 0 -- -- 46
2017-09-11 00:00:00 17.5 9 Oeste 21 Noroeste 0 -- -- 42
2017-09-10 23:00:00 16.4 5 Sudoeste 13 Sudoeste 0 -- -- 44
2017-09-10 22:00:00 17.7 5 Sur 9 Sur 0 -- -- 43
2017-09-10 21:00:00 19.9 3 Oeste 12 Noroeste 0 -- -- 32
2017-09-10 20:00:00 21.1 6 Noroeste 24 Noroeste 0 -- -- 29
2017-09-10 19:00:00 22.2 10 Noroeste 25 Noroeste 0 -- -- 27
2017-09-10 18:00:00 22 12 Noroeste 26 Norte 0 -- -- 27
2017-09-10 17:00:00 21.4 13 Noroeste 31 Oeste 0 -- -- 29
2017-09-10 16:00:00 20.2 12 Noroeste 25 Norte 0 -- -- 32
2017-09-10 15:00:00 19.3 11 Noroeste 24 Oeste 0 -- -- 36
2017-09-10 14:00:00 17.9 7 Noroeste 23 Noroeste 0 -- -- 40
2017-09-10 13:00:00 16.5 8 Oeste 18 Oeste 0 -- -- 43
2017-09-10 12:00:00 14.8 9 Noroeste 21 Noroeste 0 -- -- 48
2017-09-10 11:00:00 13 9 Norte 15 Norte 0 -- -- 56
2017-09-10 10:00:00 11.2 7 Noroeste 16 Oeste 0 -- -- 62
2017-09-10 09:00:00 8.9 3 Sudoeste 6 Sur 0 -- -- 69
2017-09-10 08:00:00 6.6 4 Oeste 9 Oeste 0 -- -- 77
2017-09-10 07:00:00 7.8 4 Noroeste 14 Noroeste 0 -- -- 75
2017-09-10 06:00:00 8.7 9 Noroeste 19 Noroeste 0 -- -- 73
2017-09-10 05:00:00 9 6 Noroeste 17 Norte 0 -- -- 71
2017-09-10 04:00:00 9.9 8 Noroeste 16 Noroeste 0 -- -- 68
2017-09-10 03:00:00 10.5 8 Noroeste 17 Norte 0 -- -- 64
2017-09-10 02:00:00 11 5 Noroeste 14 Norte 0 -- -- 61
2017-09-10 01:00:00 12.7 6 Oeste 17 Oeste 0 -- -- 53
2017-09-10 00:00:00 13.6 5 Oeste 19 Norte 0 -- -- 50
2017-09-09 23:00:00 14.5 13 Norte 27 Norte 0 -- -- 47
2017-09-09 22:00:00 15.7 17 Norte 27 Norte 0 -- -- 43
2017-09-09 21:00:00 16.9 15 Norte 35 Norte 0 -- -- 37
2017-09-09 20:00:00 18.7 22 Norte 43 Norte 0 -- -- 32
2017-09-09 19:00:00 20.1 26 Norte 50 Norte 0 -- -- 29
2017-09-09 18:00:00 20.6 26 Norte 44 Noroeste 0 -- -- 30
2017-09-09 17:00:00 20.4 22 Noroeste 43 Norte 0 -- -- 33
2017-09-09 16:00:00 20.6 21 Noroeste 41 Norte 0 -- -- 29
2017-09-09 15:00:00 19.9 25 Noroeste 40 Noroeste 0 -- -- 33
2017-09-09 14:00:00 19.1 17 Noroeste 35 Noroeste 0 -- -- 44
2017-09-09 13:00:00 16.8 17 Noroeste 30 Noroeste 0 -- -- 52
2017-09-09 12:00:00 15.6 10 Noroeste 25 Noroeste 0 -- -- 67
2017-09-09 11:00:00 15.1 13 Noroeste 40 Noroeste 0 -- -- 70
2017-09-09 10:00:00 15.2 22 Oeste 40 Noroeste 0 -- -- 71
2017-09-09 09:00:00 14.3 18 Oeste 37 Oeste 0 -- -- 75
2017-09-09 08:00:00 14.1 16 Oeste 36 Oeste 0 -- -- 71
2017-09-09 07:00:00 14.8 14 Oeste 32 Oeste 0 -- -- 64
2017-09-09 06:00:00 14.9 16 Oeste 27 Oeste 0 -- -- 58
2017-09-09 05:00:00 15.8 12 Oeste 28 Noroeste 0 -- -- 51
2017-09-09 04:00:00 16.7 19 Oeste 36 Noroeste 0 -- -- 48
2017-09-09 03:00:00 17 15 Oeste 29 Oeste 0 -- -- 46
2017-09-09 02:00:00 17.4 18 Oeste 28 Oeste 0 -- -- 42
2017-09-09 01:00:00 17.5 17 Sudoeste 23 Oeste 0 -- -- 32
2017-09-09 00:00:00 19.1 16 Oeste 25 Oeste 0 -- -- 26
2017-09-08 23:00:00 20.4 11 Oeste 18 Oeste 0 -- -- 22
2017-09-08 22:00:00 21.2 6 Oeste 15 Oeste 0 -- -- 21
2017-09-08 21:00:00 23.9 10 Noroeste 28 Oeste 0 -- -- 17
2017-09-08 20:00:00 27.1 17 Noroeste 31 Oeste 0 -- -- 14
2017-09-08 19:00:00 28.6 19 Noroeste 41 Noroeste 0 -- -- 15
2017-09-08 18:00:00 29.4 12 Noroeste 32 Noroeste 0 -- -- 17
2017-09-08 17:00:00 29.2 14 Noroeste 26 Oeste 0 -- -- 16
2017-09-08 16:00:00 28.2 13 Oeste 30 Oeste 0 -- -- 19
2017-09-08 15:00:00 27.4 13 Noroeste 30 Oeste 0 -- -- 20
2017-09-08 14:00:00 26.7 8 Noroeste 22 Noroeste 0 -- -- 23
2017-09-08 13:00:00 24.3 8 Oeste 16 Oeste 0 -- -- 26
2017-09-08 12:00:00 21.5 8 Oeste 13 Noroeste 0 -- -- 31
2017-09-08 11:00:00 19.2 7 Oeste 13 Oeste 0 -- -- 34
2017-09-08 10:00:00 14.1 5 Sur 12 Sur 0 -- -- 50
2017-09-08 09:00:00 10 6 Sur 10 Sur 0 -- -- 59
2017-09-08 08:00:00 8.3 8 Sur 11 Sur 0 -- -- 65
2017-09-08 07:00:00 9.2 8 Sur 12 Sur 0 -- -- 63
2017-09-08 06:00:00 9.3 3 Sudoeste 12 Sur 0 -- -- 63
2017-09-08 05:00:00 9.9 5 Sudoeste 9 Sur 0 -- -- 60
2017-09-08 04:00:00 9.8 8 Sur 12 Sur 0 -- -- 62
2017-09-08 03:00:00 10.6 8 Sur 12 Sur 0 -- -- 57
2017-09-08 02:00:00 12.1 6 Sur 14 Sur 0 -- -- 48
2017-09-08 01:00:00 13 7 Sur 14 Sur 0 -- -- 49
2017-09-08 00:00:00 14.2 2 Sur 10 Sudeste 0 -- -- 50
2017-09-07 23:00:00 16.5 2 Sur 8 Sur 0 -- -- 45
2017-09-07 22:00:00 19.6 0 Calma 6 Norte 0 -- -- 32
2017-09-07 21:00:00 22.9 5 Norte 12 Norte 0 -- -- 26
2017-09-07 20:00:00 25.8 9 Norte 15 Norte 0 -- -- 21
2017-09-07 19:00:00 26.9 6 Norte 16 Noroeste 0 -- -- 20
2017-09-07 18:00:00 27.2 4 Nordeste 17 Nordeste 0 -- -- 22
2017-09-07 17:00:00 26.8 7 Este 18 Norte 0 -- -- 22
2017-09-07 16:00:00 25.3 10 Nordeste 21 Nordeste 0 -- -- 25
2017-09-07 15:00:00 24.2 9 Nordeste 19 Nordeste 0 -- -- 28
2017-09-07 14:00:00 22.5 9 Nordeste 19 Este 0 -- -- 31
2017-09-07 13:00:00 19.1 7 Norte 16 Este 0 -- -- 44
2017-09-07 12:00:00 16.6 5 Nordeste 9 Este 0 -- -- 54
2017-09-07 11:00:00 14.1 4 Nordeste 13 Norte 0 -- -- 67
2017-09-07 10:00:00 11.3 2 Sudoeste 5 Sudoeste 0 -- -- 80
2017-09-07 09:00:00 7.3 3 Sudoeste 9 Sur 0 -- -- 89
2017-09-07 08:00:00 6.1 6 Sur 9 Sur 0 -- -- 89
2017-09-07 07:00:00 7.5 2 Sur 7 Norte 0 -- -- 85
2017-09-07 06:00:00 8.3 3 Noroeste 8 Norte 0 -- -- 85
2017-09-07 05:00:00 8.7 0 Calma 6 Noroeste 0 -- -- 80
2017-09-07 04:00:00 10.2 0 Calma 6 Oeste 0 -- -- 78
2017-09-07 03:00:00 12.3 3 Nordeste 9 Norte 0 -- -- 70
2017-09-07 02:00:00 13.6 6 Nordeste 12 Nordeste 0 -- -- 67
2017-09-07 01:00:00 15.1 6 Norte 12 Norte 0 -- -- 65
2017-09-07 00:00:00 16.3 8 Este 14 Nordeste 0 -- -- 62
2017-09-06 23:00:00 18.2 7 Este 23 Nordeste 0 -- -- 57
2017-09-06 22:00:00 20.5 13 Nordeste 26 Nordeste 0 -- -- 48
2017-09-06 21:00:00 22.7 13 Nordeste 30 Nordeste 0 -- -- 46
2017-09-06 20:00:00 25.6 17 Nordeste 32 Norte 0 -- -- 43
2017-09-06 19:00:00 27.9 18 Nordeste 35 Norte 0 -- -- 39
2017-09-06 18:00:00 29.3 12 Norte 22 Norte 0 -- -- 37
2017-09-06 17:00:00 29.5 9 Norte 26 Este 0 -- -- 34
2017-09-06 16:00:00 29.1 9 Este 20 Nordeste 0 -- -- 37
2017-09-06 15:00:00 27.6 8 Nordeste 20 Este 0 -- -- 41
2017-09-06 14:00:00 25.8 10 Nordeste 20 Nordeste 0 -- -- 47
2017-09-06 13:00:00 23.9 11 Nordeste 19 Nordeste 0 -- -- 50
2017-09-06 12:00:00 21.3 8 Nordeste 18 Este 0 -- -- 57
2017-09-06 11:00:00 19 8 Nordeste 18 Este 0 -- -- 64
2017-09-06 10:00:00 16.8 6 Nordeste 11 Norte 0 -- -- 68
2017-09-06 09:00:00 13.4 0 Calma 4 Sur 0 -- -- 82
2017-09-06 08:00:00 12.8 2 Sudeste 4 Sur 0 -- -- 81
2017-09-06 07:00:00 13.6 3 Sur 6 Norte 0 -- -- 80
2017-09-06 06:00:00 14.6 3 Norte 6 Noroeste 0 -- -- 84
2017-09-06 05:00:00 15.6 3 Norte 15 Norte 0 -- -- 80
2017-09-06 04:00:00 15.8 7 Norte 12 Norte 0 -- -- 71
2017-09-06 03:00:00 16.3 2 Oeste 8 Sudeste 0 -- -- 58
2017-09-06 02:00:00 18 3 Sudeste 5 Sur 0 -- -- 53
2017-09-06 01:00:00 19.6 4 Nordeste 13 Este 0 -- -- 46
2017-09-06 00:00:00 19.7 5 Oeste 13 Noroeste 0 -- -- 51
2017-09-05 23:00:00 22.4 2 Oeste 5 Nordeste 0 -- -- 41
2017-09-05 22:00:00 25.5 4 Norte 13 Norte 0 -- -- 35
2017-09-05 21:00:00 27.5 9 Norte 21 Norte 0 -- -- 34
2017-09-05 20:00:00 29.8 12 Norte 21 Norte 0 -- -- 32
2017-09-05 19:00:00 31.1 8 Norte 25 Noroeste 0 -- -- 28
2017-09-05 18:00:00 31.5 10 Norte 21 Norte 0 -- -- 26
2017-09-05 17:00:00 31.6 8 Norte 24 Oeste 0 -- -- 28
2017-09-05 16:00:00 31.1 14 Oeste 24 Oeste 0 -- -- 28
2017-09-05 15:00:00 30.1 9 Noroeste 19 Noroeste 0 -- -- 31
2017-09-05 14:00:00 29.4 8 Noroeste 17 Oeste 0 -- -- 33
2017-09-05 13:00:00 28.3 5 Sudoeste 12 Sudoeste 0 -- -- 36
2017-09-05 12:00:00 26.5 5 Sudoeste 13 Sudoeste 0 -- -- 42
2017-09-05 11:00:00 23.7 6 Sudoeste 16 Sudoeste 0 -- -- 50
2017-09-05 10:00:00 20.5 8 Sudoeste 16 Sudoeste 0 -- -- 62
2017-09-05 09:00:00 16.3 6 Sudoeste 11 Sudoeste 0 -- -- 73
2017-09-05 08:00:00 12.9 8 Sur 12 Sur 0 -- -- 79
2017-09-05 07:00:00 12.9 2 Sudoeste 11 Oeste 0 -- -- 80
2017-09-05 06:00:00 13.6 4 Sudeste 12 Oeste 0 -- -- 78
2017-09-05 05:00:00 13.8 5 Sur 8 Sur 0 -- -- 77
2017-09-05 04:00:00 14.2 4 Sudoeste 8 Sur 0 -- -- 75
2017-09-05 03:00:00 14.7 6 Sur 11 Sudoeste 0 -- -- 74
2017-09-05 02:00:00 15.7 6 Sur 10 Sur 0 -- -- 71
2017-09-05 01:00:00 16.4 7 Sur 12 Sudoeste 0 -- -- 68
2017-09-05 00:00:00 18.2 3 Sur 8 Sudeste 0 -- -- 62
2017-09-04 23:00:00 19.8 0 Calma 5 Este 0 -- -- 53
2017-09-04 22:00:00 22.2 0 Calma 5 Sudeste 0 -- -- 48
2017-09-04 21:00:00 24.9 0 Calma 9 Este 0 -- -- 42
2017-09-04 20:00:00 26.6 3 Norte 12 Nordeste 0 -- -- 39
2017-09-04 19:00:00 27.1 7 Noroeste 18 Nordeste 0 -- -- 38
2017-09-04 18:00:00 26.9 4 Este 26 Norte 0 -- -- 39
2017-09-04 17:00:00 26.3 9 Norte 22 Norte 0 -- -- 40
2017-09-04 16:00:00 25.6 5 Norte 24 Norte 0 -- -- 41
2017-09-04 15:00:00 24.5 7 Norte 23 Norte 0 -- -- 44
2017-09-04 14:00:00 23 6 Norte 16 Noroeste 0 -- -- 48
2017-09-04 13:00:00 23.4 5 Noroeste 15 Noroeste 0 -- -- 50
2017-09-04 12:00:00 20.6 8 Noroeste 22 Noroeste 0 -- -- 60
2017-09-04 11:00:00 19.1 13 Oeste 22 Oeste 0 -- -- 65
2017-09-04 10:00:00 17.2 10 Oeste 23 Oeste 0 -- -- 73
2017-09-04 09:00:00 16.1 11 Oeste 21 Oeste 0 -- -- 77
2017-09-04 08:00:00 14.7 8 Oeste 25 Oeste 0 -- -- 82
2017-09-04 07:00:00 15 14 Oeste 24 Oeste 0 -- -- 80
2017-09-04 06:00:00 15.7 13 Oeste 30 Oeste 0 -- -- 73
2017-09-04 05:00:00 16.3 15 Oeste 28 Oeste 0 -- -- 67
2017-09-04 04:00:00 17.1 17 Oeste 31 Oeste 0 -- -- 59
2017-09-04 03:00:00 17.8 19 Oeste 30 Oeste 0 -- -- 52
2017-09-04 02:00:00 18.3 20 Oeste 30 Oeste 0 -- -- 47
2017-09-04 01:00:00 19.1 10 Oeste 20 Oeste 0 -- -- 39
2017-09-04 00:00:00 19.5 10 Oeste 19 Oeste 0 -- -- 32
2017-09-03 23:00:00 22.1 12 Oeste 20 Noroeste 0 -- -- 28
2017-09-03 22:00:00 23.1 7 Oeste 18 Noroeste 0 -- -- 28
2017-09-03 21:00:00 25.8 13 Noroeste 28 Oeste 0 -- -- 23
2017-09-03 20:00:00 28.4 17 Noroeste 29 Noroeste 0 -- -- 21
2017-09-03 19:00:00 29.6 18 Noroeste 35 Oeste 0 -- -- 18
2017-09-03 18:00:00 30 18 Oeste 35 Oeste 0 -- -- 17
2017-09-03 17:00:00 30.2 17 Noroeste 33 Noroeste 0 -- -- 17
2017-09-03 16:00:00 29.8 13 Oeste 32 Noroeste 0 -- -- 17
2017-09-03 15:00:00 28.5 16 Oeste 28 Noroeste 0 -- -- 18
2017-09-03 14:00:00 27.2 12 Noroeste 29 Oeste 0 -- -- 22
2017-09-03 13:00:00 26.3 13 Oeste 29 Oeste 0 -- -- 25
2017-09-03 12:00:00 24.7 9 Oeste 17 Oeste 0 -- -- 26
2017-09-03 11:00:00 22.7 7 Oeste 13 Noroeste 0 -- -- 32
2017-09-03 10:00:00 18.3 2 Sur 5 Sudeste 0 -- -- 47
2017-09-03 09:00:00 14.4 4 Sur 8 Sur 0 -- -- 57
2017-09-03 08:00:00 13.5 3 Sudoeste 10 Sudoeste 0 -- -- 59
2017-09-03 07:00:00 12.9 4 Sudoeste 12 Sur 0 -- -- 61
2017-09-03 06:00:00 13 6 Sur 13 Sur 0 -- -- 60
2017-09-03 05:00:00 12.5 7 Sur 13 Sur 0 -- -- 62
2017-09-03 04:00:00 12 8 Sur 12 Sur 0 -- -- 61
2017-09-03 03:00:00 12.4 7 Sur 12 Sur 0 -- -- 58
2017-09-03 02:00:00 13.1 5 Sur 8 Sudoeste 0 -- -- 54
2017-09-03 01:00:00 13.8 5 Sur 9 Sur 0 -- -- 51
2017-09-03 00:00:00 14.9 3 Sudoeste 5 Sudoeste 0 -- -- 53
2017-09-02 23:00:00 16.7 2 Sur 4 Sur 0 -- -- 44
2017-09-02 22:00:00 18.7 0 Calma 6 Norte 0 -- -- 35
2017-09-02 21:00:00 22.2 5 Norte 12 Norte 0 -- -- 29
2017-09-02 20:00:00 24.9 8 Norte 14 Norte 0 -- -- 22
2017-09-02 19:00:00 25.9 6 Noroeste 15 Norte 0 -- -- 20
2017-09-02 18:00:00 26.2 4 Noroeste 13 Sudoeste 0 -- -- 23
2017-09-02 17:00:00 25 8 Este 15 Sudeste 0 -- -- 24
2017-09-02 16:00:00 23.7 8 Nordeste 21 Este 0 -- -- 28
2017-09-02 15:00:00 22.6 6 Norte 21 Nordeste 0 -- -- 30
2017-09-02 14:00:00 21.6 8 Nordeste 16 Nordeste 0 -- -- 34
2017-09-02 13:00:00 19.8 10 Este 18 Este 0 -- -- 36
2017-09-02 12:00:00 18.3 8 Nordeste 17 Este 0 -- -- 44
2017-09-02 11:00:00 15.7 9 Este 16 Este 0 -- -- 58
2017-09-02 10:00:00 13.2 8 Este 14 Nordeste 0 -- -- 70
2017-09-02 09:00:00 11.3 5 Este 10 Este 0 -- -- 76
2017-09-02 08:00:00 8.9 0 Calma 10 Nordeste 0 -- -- 85
2017-09-02 07:00:00 9.4 4 Este 8 Nordeste 0 -- -- 83
2017-09-02 06:00:00 10 3 Nordeste 10 Este 0 -- -- 81
2017-09-02 05:00:00 10.4 5 Este 12 Nordeste 0 -- -- 78
2017-09-02 04:00:00 11.4 4 Este 12 Nordeste 0 -- -- 73
2017-09-02 03:00:00 12.1 6 Nordeste 18 Este 0 -- -- 69
2017-09-02 02:00:00 12.6 6 Nordeste 15 Nordeste 0 -- -- 68
2017-09-02 01:00:00 13.4 8 Nordeste 23 Nordeste 0 -- -- 64
2017-09-02 00:00:00 14.8 13 Nordeste 24 Nordeste 0 -- -- 59
2017-09-01 23:00:00 16.2 13 Nordeste 24 Nordeste 0 -- -- 51
2017-09-01 22:00:00 17.6 9 Nordeste 18 Nordeste 0 -- -- 45
2017-09-01 21:00:00 20.1 9 Nordeste 22 Nordeste 0 -- -- 41
2017-09-01 20:00:00 22.6 13 Nordeste 24 Este 0 -- -- 35
2017-09-01 19:00:00 24.1 10 Nordeste 25 Norte 0 -- -- 32
2017-09-01 18:00:00 24.5 10 Nordeste 29 Nordeste 0 -- -- 31
2017-09-01 17:00:00 24.5 10 Nordeste 22 Nordeste 0 -- -- 31
2017-09-01 16:00:00 23.8 10 Norte 21 Norte 0 -- -- 35
2017-09-01 15:00:00 23.1 10 Nordeste 23 Este 0 -- -- 39
2017-09-01 14:00:00 22.9 7 Nordeste 18 Sudeste 0 -- -- 41
2017-09-01 13:00:00 20.9 9 Nordeste 20 Nordeste 0 -- -- 52
2017-09-01 12:00:00 18.4 11 Nordeste 19 Este 0 -- -- 63
2017-09-01 11:00:00 15.7 6 Nordeste 13 Este 0 -- -- 74
2017-09-01 10:00:00 13.6 6 Nordeste 12 Nordeste 0 -- -- 80
2017-09-01 09:00:00 11.6 5 Norte 10 Norte 0 -- -- 86
2017-09-01 08:00:00 10.2 6 Norte 9 Norte 0 -- -- 91
2017-09-01 07:00:00 10.9 4 Norte 10 Norte 0 -- -- 88
2017-09-01 06:00:00 11.2 4 Norte 6 Norte 0 -- -- 86
2017-09-01 05:00:00 12.1 4 Norte 9 Nordeste 0 -- -- 83
2017-09-01 04:00:00 12.8 2 Este 9 Nordeste 0 -- -- 80
2017-09-01 03:00:00 13.8 7 Nordeste 15 Nordeste 0 -- -- 75
2017-09-01 02:00:00 15.1 5 Norte 9 Nordeste 0 -- -- 67
2017-09-01 01:00:00 16.1 5 Nordeste 14 Nordeste 0 -- -- 64
2017-09-01 00:00:00 18 7 Nordeste 13 Nordeste 0 -- -- 59
2017-08-31 23:00:00 19 6 Norte 12 Norte 0 -- -- 52
2017-08-31 22:00:00 20.1 8 Norte 17 Norte 0 -- -- 49
2017-08-31 21:00:00 22.1 10 Norte 20 Norte 0 -- -- 45
2017-08-31 20:00:00 23 11 Norte 21 Norte 0 -- -- 44
2017-08-31 19:00:00 24 10 Norte 22 Norte 0 -- -- 44
2017-08-31 18:00:00 24.3 6 Norte 28 Noroeste 0 -- -- 43
2017-08-31 17:00:00 23.9 14 Norte 26 Noroeste 0 -- -- 46
2017-08-31 16:00:00 23.7 7 Este 19 Este 0 -- -- 49
2017-08-31 15:00:00 22.3 9 Este 20 Este 0 -- -- 53
2017-08-31 14:00:00 20.8 8 Este 17 Nordeste 0 -- -- 59
2017-08-31 13:00:00 20.2 6 Este 15 Este 0 -- -- 67
2017-08-31 12:00:00 17.9 5 Nordeste 12 Norte 0 -- -- 75
2017-08-31 11:00:00 15.5 4 Nordeste 13 Sudeste 0 -- -- 83
2017-08-31 10:00:00 14.7 6 Este 14 Este 0 -- -- 86
2017-08-31 09:00:00 14 4 Nordeste 13 Nordeste 0 -- -- 92
2017-08-31 08:00:00 13.4 6 Nordeste 12 Nordeste 0 -- -- 96
2017-08-31 07:00:00 14 7 Nordeste 12 Nordeste 0.2 -- -- 96
2017-08-31 06:00:00 14.7 5 Nordeste 12 Nordeste 0 -- -- 97
2017-08-31 05:00:00 14.9 4 Nordeste 12 Norte 0 -- -- 97
2017-08-31 04:00:00 14.8 2 Nordeste 5 Nordeste 0 -- -- 96
2017-08-31 03:00:00 15.4 3 Sudoeste 9 Sudeste 0 -- -- 95
2017-08-31 02:00:00 15.7 6 Sudeste 9 Sudeste 0 -- -- 94
2017-08-31 01:00:00 15.8 4 Este 10 Sudoeste 0.4 -- -- 94
2017-08-31 00:00:00 15.7 5 Sudoeste 14 Nordeste 0 -- -- 94
2017-08-30 23:00:00 15.9 5 Norte 18 Norte 0.2 -- -- 94
2017-08-30 22:00:00 16.1 14 Norte 48 Noroeste 3 -- -- 92
2017-08-30 21:00:00 22 6 Noroeste 24 Norte 0.2 -- -- 54
2017-08-30 20:00:00 23.7 14 Oeste 26 Oeste 0 -- -- 40
2017-08-30 19:00:00 24.8 15 Noroeste 27 Noroeste 0 -- -- 35
2017-08-30 18:00:00 26.3 10 Noroeste 29 Oeste 0 -- -- 33
2017-08-30 17:00:00 25.7 15 Oeste 29 Oeste 0 -- -- 34
2017-08-30 16:00:00 25.4 16 Oeste 30 Oeste 0 -- -- 36
2017-08-30 15:00:00 24.8 14 Oeste 31 Oeste 0 -- -- 37
2017-08-30 14:00:00 24.1 14 Oeste 30 Oeste 0 -- -- 41
2017-08-30 13:00:00 22.7 12 Oeste 26 Noroeste 0 -- -- 45
2017-08-30 12:00:00 21.5 8 Oeste 24 Oeste 0 -- -- 48
2017-08-30 11:00:00 19.8 9 Oeste 19 Oeste 0 -- -- 55
2017-08-30 10:00:00 17.3 9 Sudoeste 13 Sudoeste 0 -- -- 69
2017-08-30 09:00:00 13.4 4 Sudoeste 8 Sudoeste 0 -- -- 82
2017-08-30 08:00:00 11.5 2 Sur 8 Sur 0 -- -- 87
2017-08-30 07:00:00 12.6 6 Sur 11 Sur 0 -- -- 84
2017-08-30 06:00:00 14.2 4 Sudoeste 13 Oeste 0 -- -- 79
2017-08-30 05:00:00 12.7 5 Sudoeste 10 Sudoeste 0 -- -- 83
2017-08-30 04:00:00 13 6 Sur 14 Sur 0 -- -- 82
2017-08-30 03:00:00 13.5 3 Sur 6 Sudoeste 0 -- -- 82
2017-08-30 02:00:00 14.1 4 Sudoeste 7 Sur 0 -- -- 78
2017-08-30 01:00:00 13.9 3 Sudoeste 11 Sur 0 -- -- 79
2017-08-30 00:00:00 15.4 2 Sudoeste 10 Sudoeste 0 -- -- 70
2017-08-29 23:00:00 16.7 4 Noroeste 14 Noroeste 0 -- -- 64
2017-08-29 22:00:00 17.1 4 Nordeste 16 Oeste 0 -- -- 62
2017-08-29 21:00:00 18.2 10 Oeste 31 Oeste 0 -- -- 59
2017-08-29 20:00:00 22.5 10 Oeste 17 Oeste 0 -- -- 46
2017-08-29 19:00:00 22.7 10 Noroeste 23 Noroeste 0 -- -- 45
2017-08-29 18:00:00 22.8 18 Oeste 28 Oeste 0 -- -- 49
2017-08-29 17:00:00 24.3 11 Sudeste 21 Sur 0 -- -- 40
2017-08-29 16:00:00 24.7 15 Sudeste 27 Sur 0 -- -- 37
2017-08-29 15:00:00 24 10 Sur 23 Sudeste 0 -- -- 37
2017-08-29 14:00:00 22.2 7 Este 25 Este 0 -- -- 53
2017-08-29 13:00:00 22.4 14 Sur 26 Sudeste 0 -- -- 55
2017-08-29 12:00:00 21.2 13 Sudeste 23 Sur 0 -- -- 60
2017-08-29 11:00:00 19.6 6 Este 13 Este 0 -- -- 67
2017-08-29 10:00:00 17.4 3 Sur 6 Noroeste 0 -- -- 71
2017-08-29 09:00:00 14.1 0 Calma 8 Sur 0 -- -- 84
2017-08-29 08:00:00 11.4 4 Sudoeste 14 Sur 0 -- -- 92
2017-08-29 07:00:00 12.1 5 Sudeste 8 Norte 0 -- -- 88
2017-08-29 06:00:00 12.7 5 Noroeste 13 Noroeste 0 -- -- 86
2017-08-29 05:00:00 14.3 4 Noroeste 16 Oeste 0 -- -- 81
2017-08-29 04:00:00 14.5 12 Sudoeste 26 Oeste 0 -- -- 85
2017-08-29 03:00:00 13.8 5 Sudoeste 13 Sur 0 -- -- 85
2017-08-29 02:00:00 15.2 8 Sur 16 Sur 0 -- -- 80
2017-08-29 01:00:00 14.9 7 Sur 15 Sudeste 0 -- -- 87
2017-08-29 00:00:00 15.4 10 Sudeste 18 Sudeste 0 -- -- 86
2017-08-28 23:00:00 16.6 10 Sudeste 19 Sudeste 0 -- -- 82
2017-08-28 22:00:00 17.4 10 Sudeste 31 Sudeste 0 -- -- 76
2017-08-28 21:00:00 18.6 13 Sudeste 37 Sudeste 0 -- -- 78
2017-08-28 20:00:00 19.3 14 Sudeste 26 Sur 0 -- -- 75
2017-08-28 19:00:00 19.4 18 Sudeste 32 Sudeste 0 -- -- 77
2017-08-28 18:00:00 19 19 Sudeste 33 Sudeste 0 -- -- 80
2017-08-28 17:00:00 20.3 20 Sur 41 Sudeste 0 -- -- 68
2017-08-28 16:00:00 19.3 24 Sudeste 41 Sudeste 0 -- -- 77
2017-08-28 15:00:00 19.7 17 Sudeste 33 Sudeste 0 -- -- 79
2017-08-28 14:00:00 21.8 15 Sudeste 31 Sudeste 0 -- -- 69
2017-08-28 13:00:00 22.8 15 Sudeste 26 Sudeste 0 -- -- 63
2017-08-28 12:00:00 22.4 8 Sudeste 16 Sudeste 0 -- -- 65
2017-08-28 11:00:00 20.5 14 Sudeste 23 Sudeste 0 -- -- 72
2017-08-28 10:00:00 19.5 13 Sudeste 23 Sudeste 0 -- -- 75
2017-08-28 09:00:00 17.6 9 Sudeste 18 Sudeste 0 -- -- 82
2017-08-28 08:00:00 17.1 8 Sudoeste 16 Sudoeste 0 -- -- 83
2017-08-28 07:00:00 17.1 6 Sur 14 Sur 0 -- -- 80
2017-08-28 06:00:00 17 4 Sur 18 Sur 0 -- -- 80
2017-08-28 05:00:00 17.5 4 Sudoeste 18 Sudeste 0 -- -- 78
2017-08-28 04:00:00 18.1 9 Sur 25 Sudeste 0 -- -- 75
2017-08-28 03:00:00 15.6 8 Sudeste 14 Sudeste 0 -- -- 85
2017-08-28 02:00:00 16.2 2 Norte 23 Sur 0 -- -- 79
2017-08-28 01:00:00 17.7 17 Sur 29 Sur 0.4 -- -- 82
2017-08-28 00:00:00 16.9 8 Sudeste 16 Sudeste 0.2 -- -- 84
2017-08-27 23:00:00 16 7 Oeste 15 Sudeste 0 -- -- 83
2017-08-27 22:00:00 15.9 9 Sudeste 24 Sudeste 0 -- -- 80
2017-08-27 21:00:00 16.1 13 Sudeste 26 Sudeste 0 -- -- 75
2017-08-27 20:00:00 17.5 15 Sur 46 Sur 0.2 -- -- 68
2017-08-27 19:00:00 18.9 23 Sur 50 Sur 1.2 -- -- 66
2017-08-27 18:00:00 22.5 24 Sur 50 Sur 0 -- -- 59
2017-08-27 17:00:00 24.9 20 Sur 44 Sur 0 -- -- 45
2017-08-27 16:00:00 24.7 17 Sudeste 34 Sur 0 -- -- 47
2017-08-27 15:00:00 23.3 18 Sudeste 30 Sudeste 0 -- -- 58
2017-08-27 14:00:00 19.6 18 Sudeste 37 Este 0 -- -- 78
2017-08-27 13:00:00 18.1 17 Este 30 Este 0.4 -- -- 83
2017-08-27 12:00:00 18 6 Este 16 Noroeste 0.2 -- -- 82
2017-08-27 11:00:00 18.8 5 Nordeste 19 Nordeste 0.2 -- -- 75
2017-08-27 10:00:00 19.2 10 Nordeste 21 Norte 0 -- -- 68
2017-08-27 09:00:00 18.8 8 Norte 12 Norte 0 -- -- 71
2017-08-27 08:00:00 18.4 8 Norte 26 Noroeste 0.6 -- -- 72
2017-08-27 07:00:00 20.6 10 Oeste 25 Noroeste 0 -- -- 57
2017-08-27 06:00:00 22.4 8 Sudeste 16 Sudeste 0 -- -- 46
2017-08-27 05:00:00 22.8 11 Sudeste 36 Sur 0 -- -- 44
2017-08-27 04:00:00 24.3 29 Sur 64 Sur 0 -- -- 38
2017-08-27 03:00:00 24.6 16 Sur 34 Sudeste 0 -- -- 32
2017-08-27 02:00:00 23.6 11 Sur 21 Sur 0 -- -- 33
2017-08-27 01:00:00 22.9 6 Sudeste 15 Sur 0 -- -- 35
2017-08-27 00:00:00 23.3 10 Sur 18 Sur 0 -- -- 36
2017-08-26 23:00:00 23 9 Sur 13 Sur 0 -- -- 37
2017-08-26 22:00:00 23 4 Sudoeste 8 Sur 0 -- -- 42
2017-08-26 21:00:00 25.5 6 Sur 22 Sur 0 -- -- 33
2017-08-26 20:00:00 26.2 13 Sur 37 Sudoeste 0 -- -- 32
2017-08-26 19:00:00 26.3 16 Sudoeste 33 Sudeste 0 -- -- 32
2017-08-26 18:00:00 26.7 13 Sudoeste 39 Sudoeste 0 -- -- 31
2017-08-26 17:00:00 28.5 15 Sudoeste 38 Oeste 0 -- -- 28
2017-08-26 16:00:00 28.7 12 Sur 31 Sudoeste 0 -- -- 28
2017-08-26 15:00:00 27.8 3 Sudoeste 13 Sudeste 0 -- -- 23
2017-08-26 14:00:00 27.4 5 Noroeste 23 Oeste 0 -- -- 22
2017-08-26 13:00:00 24.3 16 Noroeste 26 Noroeste 0 -- -- 27
2017-08-26 12:00:00 24.9 9 Oeste 16 Oeste 0 -- -- 23
2017-08-26 11:00:00 23.6 5 Norte 7 Norte 0 -- -- 32
2017-08-26 10:00:00 21.2 4 Sur 12 Sur 0 -- -- 38
2017-08-26 09:00:00 16.2 4 Sudoeste 14 Sur 0 -- -- 51
2017-08-26 08:00:00 13.5 2 Sudeste 7 Sur 0 -- -- 54
2017-08-26 07:00:00 14.3 6 Sur 11 Sur 0 -- -- 49
2017-08-26 06:00:00 15.5 5 Sur 9 Sudeste 0 -- -- 47
2017-08-26 05:00:00 15.5 2 Sur 8 Sur 0 -- -- 45
2017-08-26 04:00:00 16.1 3 Sudoeste 9 Sudoeste 0 -- -- 49
2017-08-26 03:00:00 16.8 4 Sur 12 Sur 0 -- -- 45
2017-08-26 02:00:00 16.7 4 Sudoeste 8 Sur 0 -- -- 50
2017-08-26 01:00:00 17.6 5 Sur 8 Oeste 0 -- -- 46
2017-08-26 00:00:00 19.9 0 Calma 9 Sur 0 -- -- 41
2017-08-25 23:00:00 21.7 4 Sur 10 Sudoeste 0 -- -- 35
2017-08-25 22:00:00 25.1 5 Sur 18 Oeste 0 -- -- 26
2017-08-25 21:00:00 27.9 11 Oeste 30 Oeste 0 -- -- 21
2017-08-25 20:00:00 29.2 18 Oeste 32 Oeste 0 -- -- 18
2017-08-25 19:00:00 31.3 21 Oeste 35 Noroeste 0 -- -- 19
2017-08-25 18:00:00 32 18 Oeste 35 Noroeste 0 -- -- 18
2017-08-25 17:00:00 30.9 20 Oeste 39 Oeste 0 -- -- 19
2017-08-25 16:00:00 31.1 22 Oeste 36 Noroeste 0 -- -- 19
2017-08-25 15:00:00 31.3 13 Oeste 31 Oeste 0 -- -- 20
2017-08-25 14:00:00 30.8 5 Oeste 18 Noroeste 0 -- -- 22
2017-08-25 13:00:00 28.3 9 Oeste 20 Oeste 0 -- -- 25
2017-08-25 12:00:00 26.6 7 Sudoeste 14 Sur 0 -- -- 29
2017-08-25 11:00:00 23.2 4 Sur 8 Sur 0 -- -- 35
2017-08-25 10:00:00 18.9 3 Sur 8 Sur 0 -- -- 47
2017-08-25 09:00:00 13.8 5 Sur 11 Sur 0 -- -- 54
2017-08-25 08:00:00 11.4 6 Sur 13 Sur 0 -- -- 57
2017-08-25 07:00:00 12 3 Sudoeste 11 Sur 0 -- -- 58
2017-08-25 06:00:00 13.2 6 Sur 13 Sur 0 -- -- 51
2017-08-25 05:00:00 14.4 7 Sur 10 Sur 0 -- -- 47
2017-08-25 04:00:00 15.1 7 Sur 10 Sur 0 -- -- 47
2017-08-25 03:00:00 15.1 6 Sur 13 Sur 0 -- -- 47
2017-08-25 02:00:00 16.5 6 Sur 9 Sudoeste 0 -- -- 42
2017-08-25 01:00:00 17.4 6 Sur 12 Sur 0 -- -- 44
2017-08-25 00:00:00 20.1 7 Sur 11 Sur 0 -- -- 40
2017-08-24 23:00:00 21.8 4 Sur 9 Oeste 0 -- -- 35
2017-08-24 22:00:00 24.4 3 Oeste 13 Noroeste 0 -- -- 28
2017-08-24 21:00:00 27 9 Noroeste 27 Oeste 0 -- -- 25
2017-08-24 20:00:00 29.6 21 Oeste 38 Oeste 0 -- -- 14
2017-08-24 19:00:00 30.6 22 Oeste 46 Oeste 0 -- -- 16
2017-08-24 18:00:00 31.6 25 Oeste 41 Oeste 0 -- -- 17
2017-08-24 17:00:00 32.1 23 Oeste 40 Oeste 0 -- -- 17
2017-08-24 16:00:00 32.1 17 Oeste 33 Oeste 0 -- -- 19
2017-08-24 15:00:00 31.1 13 Noroeste 29 Oeste 0 -- -- 23
2017-08-24 14:00:00 30 9 Oeste 23 Noroeste 0 -- -- 25
2017-08-24 13:00:00 28.3 11 Noroeste 25 Oeste 0 -- -- 31
2017-08-24 12:00:00 25.9 10 Noroeste 20 Noroeste 0 -- -- 37
2017-08-24 11:00:00 25.1 11 Noroeste 18 Noroeste 0 -- -- 37
2017-08-24 10:00:00 21.8 4 Sur 6 Sudoeste 0 -- -- 46
2017-08-24 09:00:00 17.6 3 Sur 8 Sur 0 -- -- 54
2017-08-24 08:00:00 14.4 7 Sur 12 Sur 0 -- -- 63
2017-08-24 07:00:00 15.7 8 Sur 13 Sur 0 -- -- 60
2017-08-24 06:00:00 16.1 6 Sudoeste 10 Sudeste 0 -- -- 59
2017-08-24 05:00:00 17.3 6 Sur 11 Sur 0 -- -- 61
2017-08-24 04:00:00 18.5 6 Sudoeste 13 Sudoeste 0 -- -- 56
2017-08-24 03:00:00 20.5 8 Sudoeste 14 Oeste 0 -- -- 48
2017-08-24 02:00:00 20.7 5 Sur 14 Sudoeste 0 -- -- 42
2017-08-24 01:00:00 20.6 6 Sur 10 Sudoeste 0 -- -- 45
2017-08-24 00:00:00 23.4 5 Sur 15 Sudoeste 0 -- -- 39
2017-08-23 23:00:00 25.1 4 Sudoeste 13 Sudoeste 0 -- -- 35
2017-08-23 22:00:00 26.5 6 Sur 13 Sur 0 -- -- 33
2017-08-23 21:00:00 31 3 Oeste 18 Noroeste 0 -- -- 24
2017-08-23 20:00:00 33.2 8 Noroeste 26 Oeste 0 -- -- 21
2017-08-23 19:00:00 33.8 13 Noroeste 35 Oeste 0 -- -- 20
2017-08-23 18:00:00 33.9 6 Sur 19 Norte 0 -- -- 19
2017-08-23 17:00:00 35.3 10 Noroeste 21 Oeste 0 -- -- 18
2017-08-23 16:00:00 34.7 7 Oeste 22 Sudoeste 0 -- -- 22
2017-08-23 15:00:00 34.1 10 Oeste 20 Oeste 0 -- -- 23
2017-08-23 14:00:00 32.2 4 Oeste 9 Oeste 0 -- -- 27
2017-08-23 13:00:00 29.5 3 Sur 11 Sudeste 0 -- -- 34
2017-08-23 12:00:00 26.5 4 Sur 10 Sudoeste 0 -- -- 42
2017-08-23 11:00:00 24.6 4 Sudoeste 8 Oeste 0 -- -- 44
2017-08-23 10:00:00 20.9 4 Sudoeste 9 Sur 0 -- -- 52
2017-08-23 09:00:00 18.7 5 Sudoeste 10 Oeste 0 -- -- 56
2017-08-23 08:00:00 16.9 4 Oeste 10 Oeste 0 -- -- 57
2017-08-23 07:00:00 15.7 4 Sudoeste 8 Sur 0 -- -- 61
2017-08-23 06:00:00 16.9 5 Sudoeste 10 Oeste 0 -- -- 54
2017-08-23 05:00:00 18.6 6 Oeste 10 Oeste 0 -- -- 50
2017-08-23 04:00:00 17.3 2 Sudoeste 10 Sudoeste 0 -- -- 56
2017-08-23 03:00:00 18 6 Sur 16 Sur 0 -- -- 54
2017-08-23 02:00:00 19.4 9 Sur 14 Sur 0 -- -- 48
2017-08-23 01:00:00 21.4 6 Sur 12 Sur 0 -- -- 44
2017-08-23 00:00:00 23.6 2 Sur 6 Noroeste 0 -- -- 39
2017-08-22 23:00:00 26.8 5 Noroeste 11 Noroeste 0 -- -- 27
2017-08-22 22:00:00 28.5 4 Noroeste 12 Norte 0 -- -- 25
2017-08-22 21:00:00 31.4 8 Noroeste 18 Noroeste 0 -- -- 21
2017-08-22 20:00:00 33.4 11 Noroeste 25 Noroeste 0 -- -- 20
2017-08-22 19:00:00 34.4 10 Noroeste 28 Oeste 0 -- -- 19
2017-08-22 18:00:00 35 9 Oeste 29 Oeste 0 -- -- 18
2017-08-22 17:00:00 35 16 Noroeste 31 Oeste 0 -- -- 20
2017-08-22 16:00:00 34.7 13 Oeste 39 Oeste 0 -- -- 23
2017-08-22 15:00:00 33.8 11 Sudoeste 33 Oeste 0 -- -- 28
2017-08-22 14:00:00 33.4 13 Oeste 29 Sudoeste 0 -- -- 30
2017-08-22 13:00:00 32.6 15 Oeste 28 Oeste 0 -- -- 30
2017-08-22 12:00:00 31.7 8 Sur 16 Sur 0 -- -- 33
2017-08-22 11:00:00 29.1 10 Sudoeste 15 Sudoeste 0 -- -- 42
2017-08-22 10:00:00 24.8 8 Sur 12 Sur 0 -- -- 53
2017-08-22 09:00:00 20.3 5 Sur 12 Sur 0 -- -- 64
2017-08-22 08:00:00 18.5 7 Sur 11 Sur 0 -- -- 67
2017-08-22 07:00:00 19 8 Sur 11 Sur 0 -- -- 67
2017-08-22 06:00:00 19.2 6 Sur 9 Sur 0 -- -- 68
2017-08-22 05:00:00 20 4 Sudoeste 13 Sur 0 -- -- 65
2017-08-22 04:00:00 21.1 8 Sur 12 Sur 0 -- -- 60
2017-08-22 03:00:00 22.4 8 Sur 13 Sur 0 -- -- 57
2017-08-22 02:00:00 23.1 4 Sur 15 Sur 0 -- -- 57
2017-08-22 01:00:00 26.2 7 Sudoeste 21 Oeste 0 -- -- 46
2017-08-22 00:00:00 28.1 14 Oeste 22 Oeste 0 -- -- 41